Time;durP1;ratioP1;P1;durP2;ratioP2;P2;SDS_P1;SDS_P2;PMS_P1;PMS_P2;Temp;Humidity;BMP_temperature;BMP_pressure;BME280_temperature;BME280_humidity;BME280_pressure;Samples;Min_cycle;Max_cycle;Signal;HPM_P1;HPM_P2
2021/04/15 00:00:21;;;;;;;17.05;3.08;;;;;;;5.08;64.10;103104.06;4981465;28;20062;-73
2021/04/15 00:02:46;;;;;;;11.88;2.95;;;;;;;5.06;64.75;103100.66;4994360;28;20563;-73
2021/04/15 00:05:23;;;;;;;6.00;2.40;;;;;;;5.04;64.52;103101.63;4988402;28;20109;-72
2021/04/15 00:07:49;;;;;;;7.88;2.53;;;;;;;5.02;64.45;103100.81;5004124;28;20050;-72
2021/04/15 00:10:15;;;;;;;9.80;2.58;;;;;;;4.98;64.74;103100.09;4998266;28;20054;-72
2021/04/15 00:12:41;;;;;;;8.73;2.90;;;;;;;4.95;64.98;103090.63;5001508;28;20706;-72
2021/04/15 00:15:11;;;;;;;11.88;2.90;;;;;;;4.97;65.25;103097.53;4984173;28;20157;-72
2021/04/15 00:17:37;;;;;;;7.55;2.70;;;;;;;4.95;65.10;103105.41;5006263;28;20049;-72
2021/04/15 00:20:05;;;;;;;8.02;2.22;;;;;;;4.93;65.34;103102.84;5007845;28;20146;-72
2021/04/15 00:22:31;;;;;;;3.42;1.88;;;;;;;4.92;65.56;103102.88;4985914;28;20069;-72
2021/04/15 00:24:59;;;;;;;6.72;2.28;;;;;;;4.89;65.69;103106.44;5003632;28;20054;-72
2021/04/15 00:27:26;;;;;;;10.73;2.05;;;;;;;4.88;65.78;103101.28;4991567;28;20054;-72
2021/04/15 00:29:52;;;;;;;8.63;2.38;;;;;;;4.83;65.70;103098.88;4993450;28;20520;-72
2021/04/15 00:32:18;;;;;;;10.25;2.08;;;;;;;4.83;65.71;103093.66;4993685;28;20512;-72
2021/04/15 00:34:44;;;;;;;7.53;2.20;;;;;;;4.86;66.36;103092.69;5011710;28;20125;-72
2021/04/15 00:37:15;;;;;;;6.35;1.67;;;;;;;4.89;66.17;103090.00;5007039;28;20498;-72
2021/04/15 00:39:41;;;;;;;4.22;1.63;;;;;;;4.89;65.81;103090.00;5003593;28;20054;-73
2021/04/15 00:42:07;;;;;;;7.70;1.63;;;;;;;4.90;67.16;103084.75;4982587;28;21044;-72
2021/04/15 00:44:33;;;;;;;5.38;1.60;;;;;;;4.89;67.00;103077.84;4976981;28;20156;-72
2021/04/15 00:47:02;;;;;;;3.88;1.50;;;;;;;4.93;67.41;103070.78;4997747;28;20053;-72
2021/04/15 00:49:32;;;;;;;7.85;1.90;;;;;;;5.01;67.72;103080.91;4990421;28;20156;-73
2021/04/15 00:52:03;;;;;;;7.80;2.15;;;;;;;5.02;67.99;103074.81;5017153;28;20060;-73
2021/04/15 00:54:38;;;;;;;5.85;2.20;;;;;;;5.04;68.03;103078.22;4981284;28;20058;-72
2021/04/15 00:57:08;;;;;;;2.72;1.30;;;;;;;5.01;68.03;103081.75;4995105;28;20089;-72
2021/04/15 00:59:35;;;;;;;2.78;1.30;;;;;;;5.01;68.32;103073.13;4999918;28;20140;-72
2021/04/15 01:02:01;;;;;;;2.58;1.20;;;;;;;4.93;68.91;103076.84;4984667;28;20516;-72
2021/04/15 01:04:28;;;;;;;6.00;1.45;;;;;;;4.87;70.15;103069.25;5008673;28;20041;-72
2021/04/15 01:06:54;;;;;;;4.38;1.30;;;;;;;4.86;70.53;103066.69;5001712;28;20222;-73
2021/04/15 01:09:20;;;;;;;9.00;1.42;;;;;;;4.88;71.52;103075.28;5000220;28;20058;-73
2021/04/15 01:12:11;;;;;;;6.50;1.35;;;;;;;4.85;72.06;103068.47;5017747;28;20103;-73
2021/04/15 01:14:56;;;;;;;3.30;1.00;;;;;;;4.83;72.62;103057.25;5002970;28;20619;-72
2021/04/15 01:17:48;;;;;;;8.25;1.40;;;;;;;4.79;72.88;103055.69;4993787;28;20078;-73
2021/04/15 01:20:42;;;;;;;4.25;1.20;;;;;;;4.79;73.03;103053.06;4997495;28;20486;-73
2021/04/15 01:23:15;;;;;;;4.80;1.30;;;;;;;4.72;73.97;103055.06;4995152;28;20455;-72
2021/04/15 01:26:00;;;;;;;5.32;1.38;;;;;;;4.72;73.38;103052.44;4995326;28;20057;-73
2021/04/15 01:28:41;;;;;;;5.22;1.05;;;;;;;4.72;73.85;103049.84;5008680;28;20049;-73
2021/04/15 01:31:23;;;;;;;5.47;1.38;;;;;;;4.72;73.97;103041.19;4998621;28;20062;-73
2021/04/15 01:34:16;;;;;;;2.83;1.42;;;;;;;4.70;73.96;103050.78;4992138;28;20057;-73
2021/04/15 01:36:51;;;;;;;5.57;1.13;;;;;;;4.70;74.48;103046.44;4984791;28;20666;-72
2021/04/15 01:39:23;;;;;;;6.15;1.60;;;;;;;4.71;73.88;103047.31;5003844;28;20057;-73
2021/04/15 01:41:55;;;;;;;5.82;1.40;;;;;;;4.72;73.62;103048.97;5000532;28;20054;-73
2021/04/15 01:44:30;;;;;;;2.67;0.93;;;;;;;4.73;73.50;103045.50;5003754;28;20041;-72
2021/04/15 01:47:02;;;;;;;2.70;1.10;;;;;;;4.69;72.93;103052.53;5000668;28;20378;-72
2021/04/15 01:49:34;;;;;;;2.47;1.10;;;;;;;4.69;73.04;103054.31;4995518;28;20419;-73
2021/04/15 01:52:01;;;;;;;6.68;1.60;;;;;;;4.65;73.21;103056.16;5002762;28;20190;-73
2021/04/15 01:54:41;;;;;;;5.93;1.40;;;;;;;4.62;73.28;103053.66;4994314;28;20820;-69
2021/04/15 01:57:28;;;;;;;6.88;1.27;;;;;;;4.64;73.38;103058.81;4982347;28;20054;-72
2021/04/15 02:00:01;;;;;;;7.75;2.03;;;;;;;4.58;73.47;103051.22;4994130;28;20844;-72
2021/04/15 02:02:41;;;;;;;6.00;1.52;;;;;;;4.48;73.35;103048.09;5008375;28;20056;-72
2021/04/15 02:05:13;;;;;;;9.77;2.05;;;;;;;4.45;73.62;103062.03;4979738;28;20049;-72
2021/04/15 02:07:43;;;;;;;5.35;1.30;;;;;;;4.40;73.54;103056.13;5001934;28;20144;-72
2021/04/15 02:10:12;;;;;;;8.75;1.38;;;;;;;4.32;73.56;103053.78;4997000;28;21674;-73
2021/04/15 02:12:42;;;;;;;8.15;2.22;;;;;;;4.30;74.01;103055.59;5002195;28;20065;-73
2021/04/15 02:15:16;;;;;;;10.05;1.80;;;;;;;4.32;74.70;103061.59;4992776;28;20069;-73
2021/04/15 02:17:43;;;;;;;14.63;2.67;;;;;;;4.28;75.06;103052.19;4987807;28;20062;-73
2021/04/15 02:20:16;;;;;;;11.02;2.45;;;;;;;4.32;74.58;103055.56;4990443;28;20054;-73
2021/04/15 02:22:56;;;;;;;8.38;2.10;;;;;;;4.30;74.97;103057.34;4995650;28;20783;-73
2021/04/15 02:25:42;;;;;;;11.20;2.30;;;;;;;4.28;75.07;103048.75;4999110;28;20105;-73
2021/04/15 02:28:25;;;;;;;12.50;2.55;;;;;;;4.28;75.52;103053.97;4978731;28;20054;-72
2021/04/15 02:31:22;;;;;;;10.25;2.35;;;;;;;4.25;75.88;103054.88;4985325;28;20094;-72
2021/04/15 02:34:00;;;;;;;9.95;1.90;;;;;;;4.25;75.64;103054.88;4994038;28;20121;-73
2021/04/15 02:36:33;;;;;;;9.98;2.03;;;;;;;4.27;75.68;103049.66;5021983;28;20049;-72
2021/04/15 02:39:09;;;;;;;10.50;2.00;;;;;;;4.32;76.00;103047.75;5003285;28;20480;-72
2021/04/15 02:41:38;;;;;;;7.90;1.92;;;;;;;4.34;75.72;103048.56;5013567;28;20127;-73
2021/04/15 02:44:10;;;;;;;6.68;2.15;;;;;;;4.32;75.60;103042.56;4988993;28;20413;-73
2021/04/15 02:46:42;;;;;;;3.65;1.40;;;;;;;4.32;76.54;103045.16;4983722;28;20800;-73
2021/04/15 02:49:11;;;;;;;5.25;1.80;;;;;;;4.27;76.17;103050.53;4972420;28;20112;-73
2021/04/15 02:51:54;;;;;;;9.77;2.20;;;;;;;4.33;76.00;103049.44;4996511;28;20539;-73
2021/04/15 02:54:26;;;;;;;8.10;1.77;;;;;;;4.27;75.65;103044.44;5000304;28;21022;-73
2021/04/15 02:57:00;;;;;;;5.10;1.70;;;;;;;4.29;76.04;103046.13;4993288;28;20049;-73
2021/04/15 02:59:37;;;;;;;3.85;1.30;;;;;;;4.34;75.48;103043.34;5000992;28;20681;-72
2021/04/15 03:02:07;;;;;;;4.55;1.40;;;;;;;4.40;75.39;103045.75;4997552;28;20555;-72
2021/04/15 03:04:37;;;;;;;9.35;2.15;;;;;;;4.46;74.98;103044.69;5001108;28;20096;-72
2021/04/15 03:07:05;;;;;;;4.78;1.75;;;;;;;4.48;75.25;103037.69;4997011;28;20119;-72
2021/04/15 03:09:34;;;;;;;4.07;1.70;;;;;;;4.52;75.50;103042.72;4997922;28;20060;-72
2021/04/15 03:12:09;;;;;;;8.50;1.88;;;;;;;4.56;75.45;103046.06;4976786;28;20557;-72
2021/04/15 03:14:43;;;;;;;4.55;1.55;;;;;;;4.54;75.17;103042.66;4990155;28;20071;-72
2021/04/15 03:17:12;;;;;;;3.92;1.58;;;;;;;4.50;76.04;103048.88;5003978;28;20167;-72
2021/04/15 03:19:43;;;;;;;5.28;1.50;;;;;;;4.47;76.31;103051.56;4996182;28;20650;-73
2021/04/15 03:22:23;;;;;;;6.80;1.80;;;;;;;4.46;75.81;103049.88;4998815;28;20045;-72
2021/04/15 03:24:55;;;;;;;4.03;1.42;;;;;;;4.44;76.12;103055.13;4991884;28;20774;-72
2021/04/15 03:27:32;;;;;;;3.80;1.75;;;;;;;4.43;76.35;103050.84;5001343;28;20470;-73
2021/04/15 03:30:06;;;;;;;6.40;1.40;;;;;;;4.48;75.26;103048.09;4995839;28;20112;-73
2021/04/15 03:32:45;;;;;;;3.03;1.42;;;;;;;4.47;75.31;103047.25;4997936;28;20136;-73
2021/04/15 03:35:28;;;;;;;3.17;1.70;;;;;;;4.48;75.50;103051.53;4996551;28;20061;-73
2021/04/15 03:38:07;;;;;;;3.30;1.27;;;;;;;4.46;75.60;103049.88;4996131;28;20144;-73
2021/04/15 03:40:35;;;;;;;2.97;1.42;;;;;;;4.44;75.56;103043.91;4999095;28;20505;-73
2021/04/15 03:43:10;;;;;;;5.35;1.60;;;;;;;4.41;75.73;103041.38;4995900;28;20053;-73
2021/04/15 03:45:43;;;;;;;7.25;1.70;;;;;;;4.36;75.15;103051.94;5002116;28;20053;-73
2021/04/15 03:48:22;;;;;;;7.00;1.70;;;;;;;4.32;75.09;103047.75;4996480;28;20062;-73
2021/04/15 03:50:54;;;;;;;5.28;1.88;;;;;;;4.27;74.70;103041.84;4990991;28;20054;-73
2021/04/15 03:53:40;;;;;;;4.15;1.65;;;;;;;4.23;74.37;103050.66;5004185;28;20583;-73
2021/04/15 03:56:13;;;;;;;2.13;1.25;;;;;;;4.21;74.71;103052.44;4999427;28;20790;-73
2021/04/15 03:58:43;;;;;;;4.90;1.25;;;;;;;4.19;74.48;103049.06;4988970;28;20062;-73
2021/04/15 04:01:16;;;;;;;4.10;1.50;;;;;;;4.13;74.27;103053.53;4985130;28;20709;-73
2021/04/15 04:03:46;;;;;;;6.78;1.58;;;;;;;4.03;74.77;103054.75;5000089;28;20057;-73
2021/04/15 04:06:17;;;;;;;7.55;2.08;;;;;;;3.94;75.15;103058.50;4987610;28;20058;-73
2021/04/15 04:09:19;;;;;;;4.13;1.80;;;;;;;3.91;74.58;103060.34;4987057;28;20054;-73
2021/04/15 04:11:47;;;;;;;6.30;2.17;;;;;;;3.84;75.54;103062.28;4981279;28;20061;-74
2021/04/15 04:14:22;;;;;;;7.25;1.80;;;;;;;3.82;75.01;103053.66;4985509;28;20058;-73
2021/04/15 04:17:09;;;;;;;7.60;1.75;;;;;;;3.78;75.36;103065.03;4995150;28;20100;-73
2021/04/15 04:19:48;;;;;;;6.13;2.05;;;;;;;3.73;75.56;103051.38;4994982;28;20524;-73
2021/04/15 04:22:33;;;;;;;7.75;1.88;;;;;;;3.72;75.49;103053.13;4979162;28;20054;-73
2021/04/15 04:25:10;;;;;;;3.00;1.70;;;;;;;3.73;74.86;103056.56;5000316;28;20050;-73
2021/04/15 04:27:47;;;;;;;9.75;2.15;;;;;;;3.72;75.40;103060.03;4987884;28;20054;-73
2021/04/15 04:30:32;;;;;;;4.15;1.77;;;;;;;3.70;74.04;103067.03;4999310;28;20046;-73
2021/04/15 04:33:02;;;;;;;6.50;1.77;;;;;;;3.63;74.10;103066.38;4985255;28;20078;-73
2021/04/15 04:35:39;;;;;;;3.83;2.05;;;;;;;3.56;73.67;103073.47;5009471;28;20077;-73
2021/04/15 04:38:08;;;;;;;6.97;2.20;;;;;;;3.46;74.40;103079.00;4997647;28;20771;-73
2021/04/15 04:40:38;;;;;;;5.40;2.10;;;;;;;3.35;74.72;103074.09;4988857;28;20057;-72
2021/04/15 04:43:22;;;;;;;6.50;2.30;;;;;;;3.40;75.63;103074.00;4999039;28;20058;-72
2021/04/15 04:45:52;;;;;;;8.40;2.33;;;;;;;3.36;75.69;103073.22;4987207;28;20065;-72
2021/04/15 04:48:31;;;;;;;4.25;2.13;;;;;;;3.41;75.98;103073.09;4999910;28;20057;-73
2021/04/15 04:51:12;;;;;;;8.45;1.98;;;;;;;3.44;76.06;103078.19;4993467;28;20105;-73
2021/04/15 04:53:41;;;;;;;6.72;2.30;;;;;;;3.48;76.78;103080.66;5004228;28;20115;-73
2021/04/15 04:56:28;;;;;;;8.15;2.40;;;;;;;3.55;76.44;103089.13;4984091;28;20623;-73
2021/04/15 04:58:59;;;;;;;6.45;2.53;;;;;;;3.55;76.60;103076.97;5000569;28;20049;-73
2021/04/15 05:01:25;;;;;;;5.30;2.28;;;;;;;3.59;76.29;103085.53;4988282;28;20058;-73
2021/04/15 05:03:59;;;;;;;5.03;2.22;;;;;;;3.66;76.61;103081.00;5009916;28;20108;-72
2021/04/15 05:06:30;;;;;;;6.50;2.35;;;;;;;3.68;76.13;103080.03;4997820;28;20624;-72
2021/04/15 05:09:00;;;;;;;5.95;2.28;;;;;;;3.72;76.54;103089.47;4988921;28;20046;-72
2021/04/15 05:11:36;;;;;;;10.77;2.58;;;;;;;3.76;76.85;103095.38;4989261;28;20498;-73
2021/04/15 05:14:04;;;;;;;10.90;2.85;;;;;;;3.78;76.67;103088.41;4973928;28;20116;-72
2021/04/15 05:16:39;;;;;;;6.72;2.88;;;;;;;3.78;76.61;103088.41;4991085;28;20077;-72
2021/04/15 05:19:07;;;;;;;9.02;3.67;;;;;;;3.82;76.94;103092.59;4983614;28;20058;-72
2021/04/15 05:21:34;;;;;;;8.13;3.20;;;;;;;3.87;77.00;103095.09;4988397;28;20065;-71
2021/04/15 05:24:19;;;;;;;7.93;3.22;;;;;;;3.88;77.00;103099.38;4999523;28;20053;-72
2021/04/15 05:26:48;;;;;;;6.90;3.20;;;;;;;3.90;76.86;103101.03;4987835;28;20167;-72
2021/04/15 05:29:21;;;;;;;7.95;3.70;;;;;;;3.93;76.68;103103.53;4983516;28;20383;-72
2021/04/15 05:31:50;;;;;;;7.95;3.28;;;;;;;3.94;76.72;103102.63;4981826;28;20050;-72
2021/04/15 05:34:32;;;;;;;7.85;2.80;;;;;;;3.93;76.28;103095.72;4984950;28;20046;-72
2021/04/15 05:37:02;;;;;;;5.85;3.47;;;;;;;3.98;76.39;103108.59;4981817;28;20123;-72
2021/04/15 05:39:30;;;;;;;10.30;3.45;;;;;;;4.00;76.47;103096.41;4998389;28;20107;-72
2021/04/15 05:41:56;;;;;;;10.30;2.88;;;;;;;4.05;76.36;103107.47;4988155;28;20474;-72
2021/04/15 05:44:36;;;;;;;11.65;3.97;;;;;;;4.04;76.62;103107.53;4998559;28;20050;-72
2021/04/15 05:47:13;;;;;;;11.57;4.20;;;;;;;4.05;76.59;103102.28;4993841;28;20053;-72
2021/04/15 05:49:48;;;;;;;9.32;3.88;;;;;;;4.04;77.30;103108.41;4985077;28;20830;-72
2021/04/15 05:52:26;;;;;;;10.88;3.80;;;;;;;4.01;76.54;103098.09;4987050;28;20171;-72
2021/04/15 05:54:56;;;;;;;8.03;3.13;;;;;;;3.98;76.71;103103.41;4989644;28;20127;-71
2021/04/15 05:57:28;;;;;;;7.03;3.20;;;;;;;3.96;76.87;103106.03;5002304;28;20545;-71
2021/04/15 05:59:56;;;;;;;7.88;3.70;;;;;;;3.92;76.79;103099.25;4984354;28;20696;-72
2021/04/15 06:02:39;;;;;;;6.43;3.40;;;;;;;3.91;76.42;103104.47;4993427;28;20053;-71
2021/04/15 06:05:19;;;;;;;9.93;4.05;;;;;;;3.89;76.82;103107.13;4988454;28;20065;-71
2021/04/15 06:07:48;;;;;;;7.90;3.58;;;;;;;3.87;76.61;103103.72;4997910;28;20053;-71
2021/04/15 06:10:19;;;;;;;7.55;3.90;;;;;;;3.92;76.70;103116.53;5000343;28;20115;-71
2021/04/15 06:13:03;;;;;;;8.75;4.65;;;;;;;3.95;75.96;103109.50;5008532;28;20061;-72
2021/04/15 06:15:34;;;;;;;17.08;6.70;;;;;;;4.00;76.66;103109.41;4987851;28;20147;-72
2021/04/15 06:18:11;;;;;;;21.38;6.03;;;;;;;4.06;76.07;103117.00;4985193;28;20062;-71
2021/04/15 06:20:42;;;;;;;16.42;7.07;;;;;;;4.14;76.01;103119.34;5002859;28;20108;-74
2021/04/15 06:23:26;;;;;;;17.52;6.40;;;;;;;4.17;75.66;103129.63;4983643;28;20096;-72
2021/04/15 06:25:54;;;;;;;11.05;4.78;;;;;;;4.22;75.96;103121.72;4995090;28;20062;-72
2021/04/15 06:28:27;;;;;;;14.85;6.13;;;;;;;4.23;76.07;103121.63;4995226;28;20057;-72
2021/04/15 06:31:21;;;;;;;14.23;5.78;;;;;;;4.27;75.93;103122.41;5002479;28;20164;-73
2021/04/15 06:33:48;;;;;;;12.57;5.35;;;;;;;4.27;76.05;103123.25;5000441;28;20115;-74
2021/04/15 06:36:38;;;;;;;13.93;6.05;;;;;;;4.30;76.21;103128.34;5003232;28;20058;-74
2021/04/15 06:39:16;;;;;;;17.83;5.75;;;;;;;4.33;76.26;103127.38;5005361;28;20061;-74
2021/04/15 06:42:02;;;;;;;18.63;6.40;;;;;;;4.39;76.62;103131.53;5006930;28;20401;-77
2021/04/15 06:44:44;;;;;;;17.20;6.15;;;;;;;4.43;76.31;103125.34;4995398;28;20064;-76
2021/04/15 06:47:29;;;;;;;13.55;5.88;;;;;;;4.48;76.22;103126.06;4998933;28;20057;-78
2021/04/15 06:50:10;;;;;;;17.27;5.60;;;;;;;4.54;75.70;103118.06;4994945;28;20053;-77
2021/04/15 06:52:53;;;;;;;12.32;4.60;;;;;;;4.59;75.52;103120.50;4980077;28;20115;-74
2021/04/15 06:55:47;;;;;;;13.02;4.32;;;;;;;4.61;75.93;103122.16;4999558;28;20132;-74
2021/04/15 06:58:28;;;;;;;16.98;4.22;;;;;;;4.63;75.02;103122.97;4997116;28;20095;-74
2021/04/15 07:01:34;;;;;;;16.10;6.20;;;;;;;4.66;75.39;103122.00;4990702;28;20100;-75
2021/04/15 07:04:04;;;;;;;17.38;5.35;;;;;;;4.70;75.64;103124.44;4988634;28;20725;-75
2021/04/15 07:06:58;;;;;;;19.27;5.63;;;;;;;4.72;75.22;103130.47;5013637;28;20045;-75
2021/04/15 07:09:42;;;;;;;17.92;5.97;;;;;;;4.78;75.25;103131.13;5019005;28;20065;-75
2021/04/15 07:12:30;;;;;;;19.15;5.55;;;;;;;4.80;75.31;103132.78;5015416;28;20049;-72
2021/04/15 07:15:43;;;;;;;16.93;6.43;;;;;;;4.84;74.89;103134.38;5003498;28;20104;-74
2021/04/15 07:18:38;;;;;;;11.40;4.72;;;;;;;4.87;75.45;103136.03;4994433;28;20100;-74
2021/04/15 07:21:26;;;;;;;12.73;4.25;;;;;;;4.92;75.60;103147.09;5003047;28;20518;-75
2021/04/15 07:24:19;;;;;;;10.65;3.97;;;;;;;5.00;75.19;103145.13;4997302;28;20482;-78
2021/04/15 07:26:51;;;;;;;12.85;4.28;;;;;;;5.03;74.99;103142.38;4998682;28;20077;-75
2021/04/15 07:29:40;;;;;;;13.25;3.78;;;;;;;5.07;74.39;103151.78;4989593;28;20079;-75
2021/04/15 07:32:26;;;;;;;;;;;;;;;5.12;74.77;103147.28;4998269;28;20202;-75
2021/04/15 07:35:02;;;;;;;12.98;4.03;;;;;;;5.23;74.34;103146.88;5003584;28;19933;-74
2021/04/15 07:38:01;;;;;;;12.88;4.03;;;;;;;5.35;74.06;103151.66;5007990;28;20054;-74
2021/04/15 07:40:40;;;;;;;11.95;4.13;;;;;;;5.50;74.62;103147.66;5004570;28;20054;-74
2021/04/15 07:43:09;;;;;;;11.48;3.92;;;;;;;5.67;73.60;103147.03;5006788;28;20068;-75
2021/04/15 07:46:01;;;;;;;;;;;;;;;5.79;73.68;103152.69;4998033;28;20102;-75
2021/04/15 07:48:52;;;;;;;5.10;2.83;;;;;;;5.96;72.39;103152.06;4975787;28;19925;-75
2021/04/15 07:51:30;;;;;;;9.23;3.00;;;;;;;6.06;71.97;103151.66;5011634;28;20084;-75
2021/04/15 07:54:20;;;;;;;10.15;3.17;;;;;;;6.14;72.00;103156.56;4983786;28;20104;-75
2021/04/15 07:57:24;;;;;;;11.52;3.63;;;;;;;6.20;70.57;103153.72;4999567;28;20548;-75
2021/04/15 08:00:16;;;;;;;11.25;3.22;;;;;;;6.18;70.09;103160.75;4997450;28;20062;-74
2021/04/15 08:03:10;;;;;;;6.05;2.90;;;;;;;6.24;69.95;103162.28;5003787;28;20057;-75
2021/04/15 08:05:49;;;;;;;8.43;3.20;;;;;;;6.29;69.65;103158.59;5001181;28;20050;-75
2021/04/15 08:08:14;;;;;;;;;;;;;;;6.33;69.64;103170.56;5007537;28;20061;-75
2021/04/15 08:10:52;;;;;;;6.35;3.03;;;;;;;6.37;69.09;103165.22;5000033;28;20335;-75
2021/04/15 08:13:40;;;;;;;10.27;2.95;;;;;;;6.43;69.64;103172.78;5001979;28;20050;-75
2021/04/15 08:16:34;;;;;;;8.95;2.70;;;;;;;6.49;69.50;103175.19;4976236;28;20058;-75
2021/04/15 08:19:25;;;;;;;5.40;2.45;;;;;;;6.50;69.16;103172.50;4997157;28;20076;-74
2021/04/15 08:22:00;;;;;;;7.50;2.58;;;;;;;6.68;68.95;103164.81;5000758;28;20058;-75
2021/04/15 08:24:45;;;;;;;7.15;2.70;;;;;;;6.92;69.16;103169.03;5006159;28;20089;-75
2021/04/15 08:27:42;;;;;;;5.40;2.58;;;;;;;7.33;68.10;103174.22;4997147;28;20057;-75
2021/04/15 08:30:19;;;;;;;7.10;3.22;;;;;;;7.39;67.75;103173.09;5004138;28;20504;-75
2021/04/15 08:33:16;;;;;;;7.50;3.15;;;;;;;7.49;66.75;103169.16;4999676;28;20053;-75
2021/04/15 08:36:17;;;;;;;6.65;2.17;;;;;;;7.40;66.11;103166.94;5006685;28;20399;-75
2021/04/15 08:39:14;;;;;;;8.02;2.78;;;;;;;7.47;66.34;103183.22;5013725;28;20700;-75
2021/04/15 08:42:07;;;;;;;8.00;2.97;;;;;;;7.46;65.92;103178.91;5002500;28;20050;-75
2021/04/15 08:44:57;;;;;;;3.42;2.05;;;;;;;7.38;64.50;103176.63;4996898;28;20057;-74
2021/04/15 08:47:43;;;;;;;8.10;2.00;;;;;;;7.42;64.17;103183.41;5006347;28;20729;-75
2021/04/15 08:50:14;;;;;;;6.15;2.30;;;;;;;7.51;64.64;103174.31;5000338;28;20059;-75
2021/04/15 08:52:46;;;;;;;8.50;2.70;;;;;;;7.57;64.77;103179.28;5006162;28;20453;-73
2021/04/15 08:55:26;;;;;;;10.80;3.63;;;;;;;7.63;64.82;103179.00;4998038;28;20127;-73
2021/04/15 08:58:05;;;;;;;4.03;2.50;;;;;;;7.69;64.04;103183.09;5009856;28;20097;-73
2021/04/15 09:00:51;;;;;;;2.55;1.85;;;;;;;7.74;63.08;103178.50;4991541;28;20101;-72
2021/04/15 09:03:27;;;;;;;4.78;2.20;;;;;;;7.81;63.59;103184.28;4985870;28;20050;-72
2021/04/15 09:06:16;;;;;;;2.88;1.77;;;;;;;7.85;62.06;103184.06;4994447;28;20107;-72
2021/04/15 09:08:58;;;;;;;5.93;1.90;;;;;;;7.85;61.74;103176.22;5011847;28;20049;-74
2021/04/15 09:11:33;;;;;;;3.58;1.90;;;;;;;7.90;62.63;103179.50;4993831;28;20168;-74
2021/04/15 09:14:32;;;;;;;6.63;2.47;;;;;;;7.99;61.74;103183.44;5010849;28;20061;-74
2021/04/15 09:17:10;;;;;;;3.70;2.08;;;;;;;8.07;60.56;103181.31;4972585;28;20060;-74
2021/04/15 09:20:04;;;;;;;3.88;1.95;;;;;;;8.49;59.59;103184.59;4991811;28;20068;-74
2021/04/15 09:22:58;;;;;;;6.53;1.80;;;;;;;8.97;58.99;103179.59;5021060;28;20072;-74
2021/04/15 09:25:43;;;;;;;3.63;1.92;;;;;;;9.00;59.02;103180.31;4998789;28;20050;-74
2021/04/15 09:28:31;;;;;;;4.68;2.45;;;;;;;8.99;58.66;103178.59;5001760;28;20500;-73
2021/04/15 09:31:14;;;;;;;5.53;2.20;;;;;;;8.95;58.64;103177.06;4993329;28;20076;-77
2021/04/15 09:34:15;;;;;;;4.70;2.10;;;;;;;9.16;57.98;103171.66;5002190;28;20057;-73
2021/04/15 09:37:16;;;;;;;4.75;1.77;;;;;;;9.43;57.24;103178.06;4997712;28;20057;-74
2021/04/15 09:40:06;;;;;;;4.22;2.00;;;;;;;9.83;56.39;103177.69;5008916;28;20104;-73
2021/04/15 09:42:37;;;;;;;4.07;1.88;;;;;;;10.16;53.76;103172.38;4994135;28;20058;-73
2021/04/15 09:45:37;;;;;;;3.70;1.70;;;;;;;10.64;53.69;103174.91;5007110;28;20112;-73
2021/04/15 09:48:29;;;;;;;7.20;1.80;;;;;;;10.79;52.87;103175.81;4998317;28;20398;-73
2021/04/15 09:51:18;;;;;;;5.07;2.00;;;;;;;10.81;52.30;103177.41;5005257;28;20061;-74
2021/04/15 09:53:44;;;;;;;6.38;1.80;;;;;;;10.63;52.53;103174.09;4983713;28;20153;-74
2021/04/15 09:56:22;;;;;;;2.20;1.30;;;;;;;10.53;52.10;103170.31;5002806;28;20129;-74
2021/04/15 09:59:12;;;;;;;2.38;1.67;;;;;;;10.86;51.95;103178.00;4991083;28;20770;-73
2021/04/15 10:01:48;;;;;;;3.50;1.80;;;;;;;11.08;51.30;103181.97;4978928;28;20470;-74
2021/04/15 10:04:31;;;;;;;3.28;1.92;;;;;;;11.56;53.59;103179.91;5002333;28;20054;-73
2021/04/15 10:07:05;;;;;;;4.97;1.90;;;;;;;11.70;50.93;103172.94;5005036;28;20054;-74
2021/04/15 10:09:47;;;;;;;5.00;1.70;;;;;;;11.57;50.32;103171.09;4981202;28;20109;-74
2021/04/15 10:12:28;;;;;;;3.95;1.83;;;;;;;11.30;49.71;103173.63;5004911;28;20061;-75
2021/04/15 10:15:17;;;;;;;3.50;2.05;;;;;;;11.13;49.81;103169.38;4996617;28;20045;-75
2021/04/15 10:18:02;;;;;;;6.25;2.22;;;;;;;11.15;50.26;103172.75;5001841;28;20065;-75
2021/04/15 10:21:00;;;;;;;4.93;2.10;;;;;;;11.24;50.93;103166.97;4988071;28;20432;-75
2021/04/15 10:23:52;;;;;;;3.58;1.80;;;;;;;11.18;50.19;103164.72;5003556;28;20084;-75
2021/04/15 10:26:27;;;;;;;3.63;1.75;;;;;;;11.07;50.71;103173.25;4998714;28;20053;-75
2021/04/15 10:29:05;;;;;;;3.67;1.98;;;;;;;10.92;50.75;103171.53;5001365;28;20053;-74
2021/04/15 10:31:50;;;;;;;3.60;1.92;;;;;;;10.82;51.60;103165.97;4977345;28;20060;-74
2021/04/15 10:34:49;;;;;;;3.78;1.95;;;;;;;10.76;51.74;103166.34;4986940;28;20057;-75
2021/04/15 10:37:52;;;;;;;7.03;2.60;;;;;;;10.69;51.33;103162.38;4959073;28;20073;-73
2021/04/15 10:40:39;;;;;;;3.25;2.17;;;;;;;10.59;50.92;103159.44;5003588;28;20049;-73
2021/04/15 10:43:24;;;;;;;4.13;2.20;;;;;;;10.75;52.29;103162.03;4994451;28;20053;-73
2021/04/15 10:46:12;;;;;;;4.43;2.60;;;;;;;10.73;50.45;103157.81;5003221;28;20053;-74
2021/04/15 10:49:14;;;;;;;5.05;2.30;;;;;;;10.83;51.65;103157.16;4999710;28;20061;-75
2021/04/15 10:52:16;;;;;;;7.47;2.60;;;;;;;10.85;50.44;103155.28;5002919;28;20375;-72
2021/04/15 10:54:44;;;;;;;10.00;3.00;;;;;;;10.89;51.47;103156.78;4998852;28;20053;-74
2021/04/15 10:57:21;;;;;;;7.85;2.63;;;;;;;10.91;49.65;103153.25;4987658;28;20057;-75
2021/04/15 10:59:50;;;;;;;4.22;2.22;;;;;;;10.88;50.54;103151.66;4990631;28;20093;-74
2021/04/15 11:02:46;;;;;;;6.47;3.03;;;;;;;10.94;50.70;103147.78;4995119;28;20199;-74
2021/04/15 11:05:15;;;;;;;5.47;2.70;;;;;;;11.02;50.58;103150.81;4992435;28;20073;-75
2021/04/15 11:07:43;;;;;;;7.95;2.80;;;;;;;11.06;49.70;103144.44;5000111;28;21149;-73
2021/04/15 11:10:23;;;;;;;6.28;2.60;;;;;;;11.11;48.65;103142.38;5005638;28;20050;-74
2021/04/15 11:13:01;;;;;;;6.53;2.97;;;;;;;11.07;48.25;103139.09;4999934;28;20171;-75
2021/04/15 11:15:44;;;;;;;4.57;2.67;;;;;;;11.12;48.53;103128.31;4990547;28;20053;-74
2021/04/15 11:18:25;;;;;;;6.72;2.92;;;;;;;11.26;49.63;103127.47;4984542;28;20054;-75
2021/04/15 11:21:10;;;;;;;5.75;3.00;;;;;;;11.27;48.03;103131.75;4990721;28;20050;-75
2021/04/15 11:23:36;;;;;;;7.28;3.67;;;;;;;11.25;47.22;103120.50;4996967;28;20054;-77
2021/04/15 11:26:21;;;;;;;5.78;3.10;;;;;;;11.45;47.75;103120.13;5006250;28;20461;-74
2021/04/15 11:28:50;;;;;;;5.15;3.10;;;;;;;11.51;46.55;103116.28;4985772;28;20951;-74
2021/04/15 11:31:26;;;;;;;6.15;3.38;;;;;;;11.78;47.59;103116.31;5008211;28;20120;-75
2021/04/15 11:34:04;;;;;;;5.55;3.50;;;;;;;12.40;45.86;103114.97;4989655;28;20061;-74
2021/04/15 11:36:34;;;;;;;6.35;3.40;;;;;;;12.87;45.15;103116.16;4986988;28;20100;-74
2021/04/15 11:39:03;;;;;;;7.00;3.45;;;;;;;12.83;42.67;103109.41;4986730;28;20065;-74
2021/04/15 11:41:34;;;;;;;6.10;3.58;;;;;;;12.71;44.01;103115.53;5001824;28;20046;-75
2021/04/15 11:44:06;;;;;;;7.38;3.80;;;;;;;12.43;44.94;103104.25;5007895;28;20057;-75
2021/04/15 11:46:48;;;;;;;6.88;2.83;;;;;;;12.31;43.32;103112.94;5014549;28;20053;-75
2021/04/15 11:49:35;;;;;;;4.97;2.30;;;;;;;12.19;43.11;103115.44;5001883;28;20066;-75
2021/04/15 11:52:11;;;;;;;6.43;2.63;;;;;;;12.07;43.78;103108.34;4996817;28;20058;-75
2021/04/15 11:54:43;;;;;;;7.93;3.10;;;;;;;11.95;43.70;103106.50;5007058;28;20057;-75
2021/04/15 11:57:19;;;;;;;7.22;3.05;;;;;;;11.82;41.40;103117.81;5004327;28;20092;-75
2021/04/15 11:59:57;;;;;;;6.35;3.65;;;;;;;12.37;43.48;103105.50;4989723;28;20639;-75
2021/04/15 12:02:33;;;;;;;3.90;2.78;;;;;;;12.63;42.07;103103.72;5001331;28;20089;-75
2021/04/15 12:05:16;;;;;;;6.50;3.70;;;;;;;13.02;39.66;103098.47;4992859;28;20050;-74
2021/04/15 12:07:48;;;;;;;4.57;3.30;;;;;;;13.44;38.11;103085.88;5003046;28;20097;-75
2021/04/15 12:10:16;;;;;;;5.88;2.72;;;;;;;13.85;38.92;103087.28;4999663;28;20122;-75
2021/04/15 12:12:47;;;;;;;7.75;3.30;;;;;;;13.97;39.69;103091.66;5006220;28;20062;-74
2021/04/15 12:15:19;;;;;;;8.63;4.07;;;;;;;13.97;39.40;103104.00;5000978;28;20481;-74
2021/04/15 12:18:01;;;;;;;5.88;3.25;;;;;;;13.81;38.20;103105.13;4987940;28;20073;-74
2021/04/15 12:21:01;;;;;;;7.65;3.20;;;;;;;13.61;38.00;103101.31;4986006;28;20061;-74
2021/04/15 12:23:42;;;;;;;8.10;3.17;;;;;;;13.58;37.99;103098.03;4979679;28;20053;-74